createdAt,value
2018-06-28T00:01:08.112Z,18.00
2018-06-28T00:03:37.225Z,17.90
2018-06-28T00:06:05.982Z,18.10
2018-06-28T00:08:35.413Z,18.00
2018-06-28T00:11:04.144Z,18.00
2018-06-28T00:13:33.228Z,17.90
2018-06-28T00:16:02.135Z,18.00
2018-06-28T00:18:31.638Z,18.00
2018-06-28T00:21:00.778Z,17.80
2018-06-28T00:23:29.843Z,17.70
2018-06-28T00:25:58.577Z,17.80
2018-06-28T00:28:27.310Z,17.80
2018-06-28T00:30:56.062Z,17.70
2018-06-28T00:33:25.138Z,17.70
2018-06-28T00:35:54.628Z,17.60
2018-06-28T00:38:23.455Z,17.60
2018-06-28T00:40:52.634Z,17.60
2018-06-28T00:43:21.779Z,17.50
2018-06-28T00:45:51.049Z,17.60
2018-06-28T00:48:20.240Z,17.50
2018-06-28T00:50:49.540Z,17.40
2018-06-28T00:53:18.785Z,17.50
2018-06-28T00:55:47.515Z,17.50
2018-06-28T00:58:16.765Z,17.50
2018-06-28T01:00:45.843Z,17.50
2018-06-28T01:03:14.564Z,17.30
2018-06-28T01:05:43.549Z,17.30
2018-06-28T01:08:12.290Z,17.30
2018-06-28T01:10:41.393Z,17.30
2018-06-28T01:13:10.813Z,17.30
2018-06-28T01:15:41.240Z,17.30
2018-06-28T01:18:10.726Z,17.20
2018-06-28T01:20:39.785Z,17.20
2018-06-28T01:23:08.551Z,17.10
2018-06-28T01:25:37.997Z,17.10
2018-06-28T01:28:06.762Z,17.10
2018-06-28T01:30:35.565Z,17.10
2018-06-28T01:33:04.731Z,17.00
2018-06-28T01:35:33.562Z,17.00
2018-06-28T01:38:03.103Z,17.10
2018-06-28T01:40:32.250Z,16.90
2018-06-28T01:43:12.413Z,16.80
2018-06-28T01:45:41.507Z,17.00
2018-06-28T01:48:10.643Z,16.80
2018-06-28T01:50:39.712Z,16.90
2018-06-28T01:53:08.912Z,16.90
2018-06-28T01:55:37.739Z,16.80
2018-06-28T01:58:06.877Z,16.90
2018-06-28T02:00:36.605Z,16.70
2018-06-28T02:03:05.919Z,16.70
2018-06-28T02:05:34.940Z,16.80
2018-06-28T02:08:04.383Z,16.60
2018-06-28T02:10:33.240Z,16.70
2018-06-28T02:13:02.821Z,16.70
2018-06-28T02:15:32.825Z,16.80
2018-06-28T02:18:01.584Z,16.70
2018-06-28T02:20:30.396Z,16.60
2018-06-28T02:22:59.716Z,16.70
2018-06-28T02:25:29.140Z,16.70
2018-06-28T02:27:57.904Z,16.60
2018-06-28T02:30:26.631Z,16.50
2018-06-28T02:32:55.720Z,16.60
2018-06-28T02:35:25.138Z,16.50
2018-06-28T02:37:54.206Z,16.40
2018-06-28T02:40:23.302Z,16.30
2018-06-28T02:42:52.379Z,16.50
2018-06-28T02:45:21.505Z,16.40
2018-06-28T02:47:50.604Z,16.40
2018-06-28T02:50:19.732Z,16.40
2018-06-28T02:52:48.853Z,16.40
2018-06-28T02:55:18.424Z,16.40
2018-06-28T02:57:47.862Z,16.40
2018-06-28T03:00:17.039Z,16.40
2018-06-28T03:02:46.533Z,16.30
2018-06-28T03:05:15.366Z,16.20
2018-06-28T03:07:44.184Z,16.30
2018-06-28T03:10:13.074Z,16.40
2018-06-28T03:12:42.567Z,16.40
2018-06-28T03:15:11.906Z,16.50
2018-06-28T03:17:41.221Z,16.50
2018-06-28T03:20:10.315Z,16.60
2018-06-28T03:22:40.296Z,16.70
2018-06-28T03:25:09.813Z,16.60
2018-06-28T03:27:39.319Z,16.70
2018-06-28T03:30:08.171Z,16.90
2018-06-28T03:32:37.771Z,16.80
2018-06-28T03:35:07.265Z,16.80
2018-06-28T03:37:36.043Z,17.20
2018-06-28T03:40:04.791Z,17.80
2018-06-28T03:42:34.221Z,18.00
2018-06-28T03:45:03.287Z,18.30
2018-06-28T03:47:32.792Z,19.10
2018-06-28T03:50:01.544Z,18.70
2018-06-28T03:52:30.983Z,18.40
2018-06-28T03:54:59.872Z,18.10
2018-06-28T03:57:28.722Z,18.30
2018-06-28T03:59:58.011Z,18.00
2018-06-28T04:02:26.778Z,18.00
2018-06-28T04:04:56.151Z,18.30
2018-06-28T04:07:25.690Z,18.70
2018-06-28T04:09:54.496Z,19.00
2018-06-28T04:12:23.660Z,19.20
2018-06-28T04:14:53.761Z,19.40
2018-06-28T04:17:23.225Z,19.30
2018-06-28T04:19:52.432Z,19.50
2018-06-28T04:22:25.989Z,19.10
2018-06-28T04:24:55.043Z,19.30
2018-06-28T04:27:23.972Z,19.50
2018-06-28T04:29:53.167Z,19.80
2018-06-28T04:32:22.127Z,20.50
2018-06-28T04:34:51.485Z,21.40
2018-06-28T04:37:20.625Z,21.20
2018-06-28T04:39:49.338Z,21.70
2018-06-28T04:42:18.078Z,22.10
2018-06-28T04:44:47.275Z,23.10
2018-06-28T04:47:16.414Z,22.90
2018-06-28T04:49:45.985Z,24.10
2018-06-28T04:52:15.242Z,23.90
2018-06-28T04:54:44.394Z,23.80
2018-06-28T04:57:13.793Z,24.30
2018-06-28T04:59:42.924Z,24.80
2018-06-28T05:02:12.393Z,25.80
2018-06-28T05:04:41.162Z,26.40
2018-06-28T05:07:10.420Z,27.30
2018-06-28T05:09:39.676Z,27.40
2018-06-28T05:12:09.099Z,27.60
2018-06-28T05:14:38.847Z,28.50
2018-06-28T05:17:08.332Z,29.40
2018-06-28T05:19:37.887Z,29.50
2018-06-28T05:22:07.605Z,28.70
2018-06-28T05:24:37.077Z,30.40
2018-06-28T05:27:06.863Z,30.70
2018-06-28T05:29:36.225Z,30.40
2018-06-28T05:32:05.997Z,30.00
2018-06-28T05:34:35.575Z,32.10
2018-06-28T05:37:05.716Z,31.60
2018-06-28T05:39:35.868Z,29.30
2018-06-28T05:42:05.272Z,30.30
2018-06-28T05:44:34.620Z,31.40
2018-06-28T05:47:04.468Z,30.60
2018-06-28T05:49:34.390Z,30.50
2018-06-28T05:52:03.675Z,29.10
2018-06-28T05:54:33.317Z,28.90
2018-06-28T05:57:03.431Z,30.10
2018-06-28T05:59:32.825Z,31.10
2018-06-28T06:02:02.652Z,31.80
2018-06-28T06:04:32.153Z,32.90
2018-06-28T06:07:01.823Z,33.80
2018-06-28T06:09:31.101Z,34.20
2018-06-28T06:12:00.819Z,33.70
2018-06-28T06:14:30.617Z,33.70
2018-06-28T06:17:00.284Z,33.70
2018-06-28T06:19:29.987Z,35.70
2018-06-28T06:21:59.787Z,34.90
2018-06-28T06:24:29.288Z,34.70
2018-06-28T06:26:59.268Z,36.20
2018-06-28T06:29:28.619Z,35.90
2018-06-28T06:31:58.347Z,34.30
2018-06-28T06:34:27.996Z,35.60
2018-06-28T06:36:58.060Z,36.40
2018-06-28T06:39:27.764Z,37.10
2018-06-28T06:41:57.068Z,38.30
2018-06-28T06:44:26.698Z,37.80
2018-06-28T06:46:56.004Z,38.40
2018-06-28T06:49:25.816Z,37.00
2018-06-28T06:54:24.236Z,39.20
2018-06-28T06:56:54.055Z,39.60
2018-06-28T06:59:24.097Z,39.00
2018-06-28T07:01:53.845Z,39.40
2018-06-28T07:04:23.211Z,39.20
2018-06-28T07:06:52.757Z,37.60
2018-06-28T07:09:22.248Z,38.20
2018-06-28T07:11:52.067Z,38.10
2018-06-28T07:14:21.849Z,37.30
2018-06-28T07:16:51.333Z,38.00
2018-06-28T07:19:21.114Z,37.40
2018-06-28T07:21:50.429Z,37.30
2018-06-28T07:24:19.785Z,37.20
2018-06-28T07:26:49.450Z,38.50
2018-06-28T07:29:19.510Z,38.60
2018-06-28T07:31:49.146Z,39.80
2018-06-28T07:34:18.863Z,41.00
2018-06-28T07:36:48.492Z,41.40
2018-06-28T07:39:18.159Z,40.90
2018-06-28T07:41:47.831Z,40.70
2018-06-28T07:44:17.502Z,39.30
2018-06-28T07:46:46.871Z,39.70
2018-06-28T07:49:16.761Z,37.70
2018-06-28T07:51:46.769Z,39.40
2018-06-28T07:54:16.654Z,38.90
2018-06-28T07:56:46.652Z,39.40
2018-06-28T07:59:16.787Z,38.30
2018-06-28T08:01:47.178Z,38.20
2018-06-28T08:04:20.074Z,38.90
2018-06-28T08:06:50.698Z,38.70
2018-06-28T08:09:21.174Z,38.60
2018-06-28T08:11:51.575Z,40.10
2018-06-28T08:14:22.209Z,38.50
2018-06-28T08:16:52.967Z,37.80
2018-06-28T08:19:23.213Z,30.90
2018-06-28T08:21:53.748Z,30.50
2018-06-28T08:24:24.146Z,30.00
2018-06-28T08:26:54.588Z,30.10
2018-06-28T08:29:25.012Z,30.10
2018-06-28T08:31:55.659Z,29.90
2018-06-28T08:34:26.063Z,29.20
2018-06-28T08:36:56.760Z,29.80
2018-06-28T08:39:27.204Z,29.70
2018-06-28T08:41:58.105Z,29.90
2018-06-28T08:44:28.559Z,29.80
2018-06-28T08:47:00.147Z,29.60
2018-06-28T08:49:30.536Z,29.70
2018-06-28T08:52:00.989Z,29.30
2018-06-28T08:54:31.820Z,28.90
2018-06-28T08:57:01.751Z,28.70
2018-06-28T08:59:32.123Z,27.70
2018-06-28T09:02:02.020Z,27.90
2018-06-28T09:04:31.883Z,27.30
2018-06-28T09:07:00.644Z,27.30
2018-06-28T09:09:29.716Z,27.20
2018-06-28T09:11:59.215Z,27.30
2018-06-28T09:14:28.060Z,27.30
2018-06-28T09:16:57.196Z,27.50
2018-06-28T09:19:26.636Z,28.30
2018-06-28T09:21:55.722Z,27.50
2018-06-28T09:24:25.192Z,27.00
2018-06-28T09:26:54.184Z,27.20
2018-06-28T09:29:22.988Z,26.90
2018-06-28T09:31:52.082Z,27.10
2018-06-28T09:34:21.115Z,27.20
2018-06-28T09:36:50.277Z,26.70
2018-06-28T09:39:19.164Z,26.30
2018-06-28T09:41:48.345Z,26.60
2018-06-28T09:44:17.694Z,27.20
2018-06-28T09:46:46.631Z,27.30
2018-06-28T09:49:15.665Z,26.70
2018-06-28T09:51:44.851Z,27.20
2018-06-28T09:54:13.954Z,27.50
2018-06-28T09:56:43.048Z,27.70
2018-06-28T09:59:11.794Z,27.10
2018-06-28T10:01:40.904Z,26.80
2018-06-28T10:04:10.044Z,27.60
2018-06-28T10:06:39.775Z,28.10
2018-06-28T10:09:09.995Z,28.20
2018-06-28T10:11:39.763Z,28.10
2018-06-28T10:14:08.536Z,28.40
2018-06-28T10:16:37.341Z,27.80
2018-06-28T10:19:06.070Z,27.40
2018-06-28T10:21:35.491Z,27.30
2018-06-28T10:24:04.293Z,27.60
2018-06-28T10:26:33.699Z,27.00
2018-06-28T10:29:02.493Z,27.40
2018-06-28T10:31:31.269Z,27.60
2018-06-28T10:34:00.500Z,27.80
2018-06-28T10:36:29.848Z,26.60
2018-06-28T10:38:58.833Z,26.60
2018-06-28T10:41:28.119Z,26.90
2018-06-28T10:43:57.361Z,27.30
2018-06-28T10:46:26.263Z,27.50
2018-06-28T10:48:55.524Z,27.60
2018-06-28T10:51:24.794Z,26.90
2018-06-28T10:53:54.393Z,26.70
2018-06-28T10:56:23.704Z,26.90
2018-06-28T10:58:52.671Z,27.30
2018-06-28T11:01:21.762Z,27.50
2018-06-28T11:03:51.234Z,27.60
2018-06-28T11:06:20.392Z,27.60
2018-06-28T11:08:49.454Z,27.80
2018-06-28T11:11:18.533Z,27.70
2018-06-28T11:13:48.096Z,27.40
2018-06-28T11:16:17.720Z,27.50
2018-06-28T11:18:46.592Z,27.10
2018-06-28T11:21:15.629Z,27.30
2018-06-28T11:23:45.065Z,27.30
2018-06-28T11:26:13.805Z,26.80
2018-06-28T11:28:43.034Z,26.50
2018-06-28T11:31:12.178Z,26.70
2018-06-28T11:33:40.932Z,26.90
2018-06-28T11:36:10.212Z,27.00
2018-06-28T11:38:39.175Z,27.00
2018-06-28T11:41:08.722Z,26.90
2018-06-28T11:43:38.894Z,26.80
2018-06-28T11:46:08.373Z,27.30
2018-06-28T11:48:37.675Z,27.40
2018-06-28T11:51:07.287Z,27.70
2018-06-28T11:53:36.569Z,27.40
2018-06-28T11:56:05.558Z,27.20
2018-06-28T11:58:34.847Z,27.10
2018-06-28T12:01:04.316Z,27.40
2018-06-28T12:03:33.398Z,27.30
2018-06-28T12:06:02.534Z,27.40
2018-06-28T12:08:31.280Z,27.70
2018-06-28T12:11:00.140Z,27.60
2018-06-28T12:13:29.742Z,27.60
2018-06-28T12:15:58.653Z,27.50
2018-06-28T12:18:27.718Z,27.70
2018-06-28T12:20:56.772Z,27.60
2018-06-28T12:23:25.510Z,27.10
2018-06-28T12:25:54.642Z,27.20
2018-06-28T12:28:23.712Z,27.40
2018-06-28T12:30:53.456Z,27.20
2018-06-28T12:33:22.891Z,27.50
2018-06-28T12:35:56.880Z,27.40
2018-06-28T12:38:26.617Z,27.50
2018-06-28T12:40:55.794Z,27.00
2018-06-28T12:43:27.083Z,26.90
2018-06-28T12:45:57.079Z,26.90
2018-06-28T12:48:26.161Z,26.80
2018-06-28T12:50:55.635Z,26.60
2018-06-28T12:53:24.696Z,26.90
2018-06-28T12:56:27.772Z,27.10
2018-06-28T12:58:59.428Z,27.30
2018-06-28T13:01:29.166Z,27.20
2018-06-28T13:03:58.887Z,27.20
2018-06-28T13:06:28.258Z,26.80
2018-06-28T13:08:57.551Z,27.10
2018-06-28T13:11:27.050Z,26.90
2018-06-28T13:13:57.067Z,27.10
2018-06-28T13:16:27.697Z,27.30
2018-06-28T13:18:56.628Z,27.10
2018-06-28T13:21:25.582Z,27.30
2018-06-28T13:23:54.829Z,27.20
2018-06-28T13:26:23.880Z,27.20
2018-06-28T13:28:53.365Z,27.30
2018-06-28T13:31:22.753Z,27.30
2018-06-28T13:33:52.580Z,27.40
2018-06-28T13:36:22.624Z,27.60
2018-06-28T13:38:52.020Z,27.60
2018-06-28T13:41:22.096Z,27.70
2018-06-28T13:43:51.408Z,27.70
2018-06-28T13:46:20.463Z,27.70
2018-06-28T13:48:50.075Z,27.70
2018-06-28T13:51:19.837Z,27.80
2018-06-28T13:53:48.919Z,27.90
2018-06-28T13:56:18.572Z,27.90
2018-06-28T13:58:48.232Z,27.70
2018-06-28T14:01:17.875Z,27.40
2018-06-28T14:03:46.643Z,27.40
2018-06-28T14:06:16.346Z,27.30
2018-06-28T14:08:45.756Z,27.30
2018-06-28T14:11:14.849Z,27.30
2018-06-28T14:13:43.658Z,27.30
2018-06-28T14:16:12.762Z,27.50
2018-06-28T14:18:41.920Z,27.70
2018-06-28T14:21:10.816Z,27.80
2018-06-28T14:23:40.384Z,27.90
2018-06-28T14:26:09.807Z,27.80
2018-06-28T14:28:39.500Z,27.60
2018-06-28T14:31:08.735Z,27.40
2018-06-28T14:33:37.559Z,27.20
2018-06-28T14:36:06.468Z,26.90
2018-06-28T14:38:35.681Z,26.90
2018-06-28T14:41:04.758Z,26.90
2018-06-28T14:43:33.638Z,27.00
2018-06-28T14:46:03.555Z,26.90
2018-06-28T14:48:32.811Z,26.90
2018-06-28T14:51:01.564Z,27.10
2018-06-28T14:53:30.899Z,26.90
2018-06-28T14:56:00.289Z,27.00
2018-06-28T14:58:29.729Z,27.00
2018-06-28T15:00:58.670Z,27.00
2018-06-28T15:03:28.189Z,27.00
2018-06-28T15:05:57.695Z,27.10
2018-06-28T15:08:27.117Z,27.10
2018-06-28T15:10:56.216Z,27.10
2018-06-28T15:13:24.943Z,27.00
2018-06-28T15:15:53.771Z,27.10
2018-06-28T15:18:23.106Z,27.00
2018-06-28T15:20:52.205Z,27.10
2018-06-28T15:23:21.356Z,26.90
2018-06-28T15:25:50.440Z,27.10
2018-06-28T15:28:19.242Z,27.10
2018-06-28T15:30:48.609Z,27.10
2018-06-28T15:33:17.632Z,26.80
2018-06-28T15:35:47.011Z,27.00
2018-06-28T15:38:16.306Z,26.90
2018-06-28T15:40:45.672Z,26.90
2018-06-28T15:43:14.828Z,26.80
2018-06-28T15:45:44.235Z,26.60
2018-06-28T15:48:13.437Z,26.60
2018-06-28T15:50:42.435Z,26.70
2018-06-28T15:53:11.231Z,26.70
2018-06-28T15:58:09.196Z,26.70
2018-06-28T16:00:37.956Z,26.70
2018-06-28T16:03:07.055Z,26.50
2018-06-28T16:05:35.843Z,26.50
2018-06-28T16:08:04.690Z,26.70
2018-06-28T16:10:33.454Z,26.80
2018-06-28T16:13:02.914Z,26.70
2018-06-28T16:15:32.458Z,26.50
2018-06-28T16:18:01.573Z,26.40
2018-06-28T16:20:30.664Z,26.30
2018-06-28T16:23:00.107Z,26.20
2018-06-28T16:25:28.878Z,26.20
2018-06-28T16:27:58.050Z,26.00
2018-06-28T16:30:27.224Z,26.00
2018-06-28T16:32:56.104Z,26.10
2018-06-28T16:35:25.008Z,26.10
2018-06-28T16:37:54.322Z,26.00
2018-06-28T16:40:23.536Z,26.00
2018-06-28T16:42:52.865Z,26.00
2018-06-28T16:45:25.149Z,25.90
2018-06-28T16:47:54.307Z,25.90
2018-06-28T16:50:23.854Z,25.90
2018-06-28T16:52:53.554Z,25.90
2018-06-28T16:55:23.031Z,25.80
2018-06-28T16:57:52.230Z,25.70
2018-06-28T17:00:21.099Z,25.70
2018-06-28T17:02:50.207Z,25.70
2018-06-28T17:05:19.395Z,25.80
2018-06-28T17:07:48.309Z,25.80
2018-06-28T17:10:17.403Z,25.80
2018-06-28T17:12:46.162Z,25.70
2018-06-28T17:15:15.304Z,25.80
2018-06-28T17:17:44.153Z,25.90
2018-06-28T17:20:13.745Z,25.90
2018-06-28T17:22:43.277Z,25.80
2018-06-28T17:25:12.606Z,25.90
2018-06-28T17:27:42.163Z,25.80
2018-06-28T17:30:11.588Z,25.80
2018-06-28T17:32:41.085Z,25.70
2018-06-28T17:35:10.213Z,25.70
2018-06-28T17:37:39.041Z,25.70
2018-06-28T17:40:07.855Z,25.50
2018-06-28T17:42:36.683Z,25.60
2018-06-28T17:45:05.549Z,25.50
2018-06-28T17:47:35.049Z,25.40
2018-06-28T17:50:04.247Z,25.30
2018-06-28T17:52:33.209Z,25.30
2018-06-28T17:55:02.369Z,25.20
2018-06-28T17:57:31.239Z,25.20
2018-06-28T18:00:00.049Z,25.20
2018-06-28T18:02:28.864Z,25.20
2018-06-28T18:04:58.004Z,25.20
2018-06-28T18:07:26.989Z,25.10
2018-06-28T18:09:56.102Z,25.10
2018-06-28T18:12:24.885Z,25.00
2018-06-28T18:14:53.680Z,25.00
2018-06-28T18:17:23.223Z,25.00
2018-06-28T18:19:52.024Z,25.00
2018-06-28T18:22:20.923Z,25.00
2018-06-28T18:24:50.967Z,24.90
2018-06-28T18:27:20.490Z,24.80
2018-06-28T18:29:49.408Z,24.70
2018-06-28T18:32:18.303Z,24.70
2018-06-28T18:34:47.149Z,24.70
2018-06-28T18:37:16.193Z,24.70
2018-06-28T18:39:45.850Z,24.60
2018-06-28T18:42:14.954Z,24.50
2018-06-28T18:44:44.165Z,24.50
2018-06-28T18:47:13.109Z,24.50
2018-06-28T18:49:41.969Z,24.40
2018-06-28T18:52:10.944Z,24.30
2018-06-28T18:54:39.747Z,24.30
2018-06-28T18:57:09.079Z,24.30
2018-06-28T18:59:37.916Z,24.20
2018-06-28T19:02:07.068Z,24.10
2018-06-28T19:04:36.387Z,24.10
2018-06-28T19:07:06.494Z,24.10
2018-06-28T19:09:41.539Z,24.10
2018-06-28T19:12:10.862Z,24.10
2018-06-28T19:14:45.149Z,24.00
2018-06-28T19:17:14.275Z,23.90
2018-06-28T19:19:43.115Z,23.90
2018-06-28T19:22:18.144Z,23.80
2018-06-28T19:24:47.464Z,23.80
2018-06-28T19:27:16.357Z,23.80
2018-06-28T19:29:50.873Z,23.70
2018-06-28T19:32:25.457Z,23.60
2018-06-28T19:34:54.738Z,23.50
2018-06-28T19:37:29.679Z,23.40
2018-06-28T19:40:04.059Z,23.40
2018-06-28T19:42:40.693Z,23.40
2018-06-28T19:45:09.959Z,23.40
2018-06-28T19:47:39.196Z,23.30
2018-06-28T19:50:13.826Z,23.30
2018-06-28T19:52:48.373Z,23.20
2018-06-28T19:55:17.535Z,23.10
2018-06-28T19:57:46.781Z,23.10
2018-06-28T20:00:21.523Z,23.00
2018-06-28T20:02:56.761Z,22.90
2018-06-28T20:05:32.719Z,22.90
2018-06-28T20:08:01.792Z,22.90
2018-06-28T20:10:31.192Z,22.90
2018-06-28T20:14:08.723Z,22.80
2018-06-28T20:16:43.409Z,22.70
2018-06-28T20:19:17.992Z,22.80
2018-06-28T20:21:46.756Z,22.70
2018-06-28T20:24:15.607Z,22.60
2018-06-28T20:29:24.246Z,22.50
2018-06-28T20:31:58.774Z,22.40
2018-06-28T20:34:28.379Z,22.40
2018-06-28T20:36:57.291Z,22.30
2018-06-28T20:39:26.814Z,22.20
2018-06-28T20:41:56.045Z,22.30
2018-06-28T20:44:25.592Z,22.30
2018-06-28T20:46:54.352Z,22.20
2018-06-28T20:49:23.116Z,22.20
2018-06-28T20:51:52.633Z,22.10
2018-06-28T20:54:21.736Z,22.10
2018-06-28T20:56:50.541Z,22.00
2018-06-28T20:59:19.328Z,22.10
2018-06-28T21:04:16.957Z,21.90
2018-06-28T21:06:46.323Z,21.90
2018-06-28T21:09:16.007Z,21.80
2018-06-28T21:11:45.170Z,21.90
2018-06-28T21:14:14.386Z,21.80
2018-06-28T21:19:12.637Z,21.70
2018-06-28T21:21:42.286Z,21.70
2018-06-28T21:24:11.529Z,21.60
2018-06-28T21:26:40.554Z,21.60
2018-06-28T21:29:09.862Z,21.60
2018-06-28T21:31:39.224Z,21.60
2018-06-28T21:34:08.242Z,21.60
2018-06-28T21:36:37.423Z,21.60
2018-06-28T21:39:08.228Z,21.40
2018-06-28T21:44:06.779Z,21.30
2018-06-28T21:46:36.546Z,21.30
2018-06-28T21:49:05.668Z,21.30
2018-06-28T21:51:34.823Z,21.30
2018-06-28T21:54:03.867Z,21.30
2018-06-28T21:56:32.667Z,21.30
2018-06-28T21:59:01.787Z,21.20
2018-06-28T22:01:30.913Z,21.20
2018-06-28T22:03:59.661Z,21.20
2018-06-28T22:06:29.067Z,21.20
2018-06-28T22:08:57.832Z,21.10
2018-06-28T22:11:26.612Z,21.00
2018-06-28T22:13:55.673Z,21.00
2018-06-28T22:16:24.802Z,21.00
2018-06-28T22:18:53.964Z,20.90
2018-06-28T22:21:23.161Z,20.90
2018-06-28T22:23:52.822Z,20.80
2018-06-28T22:26:22.027Z,20.90
2018-06-28T22:28:50.898Z,20.90
2018-06-28T22:31:20.490Z,20.80
2018-06-28T22:33:50.909Z,20.80
2018-06-28T22:36:21.126Z,20.80
2018-06-28T22:38:50.296Z,20.80
2018-06-28T22:41:19.183Z,20.70
2018-06-28T22:43:48.017Z,20.70
2018-06-28T22:46:16.802Z,20.60
2018-06-28T22:48:45.661Z,20.60
2018-06-28T22:51:15.074Z,20.60
2018-06-28T22:53:44.151Z,20.60
2018-06-28T22:56:12.984Z,20.50
2018-06-28T22:58:42.037Z,20.40
2018-06-28T23:01:10.764Z,20.40
2018-06-28T23:03:40.196Z,20.40
2018-06-28T23:06:09.020Z,20.40
2018-06-28T23:08:37.802Z,20.50
2018-06-28T23:11:06.848Z,20.50
2018-06-28T23:13:35.634Z,20.50
2018-06-28T23:16:04.364Z,20.40
2018-06-28T23:18:33.476Z,20.40
2018-06-28T23:21:02.253Z,20.30
2018-06-28T23:23:31.132Z,20.30
2018-06-28T23:26:00.693Z,20.30
2018-06-28T23:28:29.823Z,20.30
2018-06-28T23:30:58.907Z,20.20
2018-06-28T23:33:28.143Z,20.20
2018-06-28T23:35:57.591Z,20.20
2018-06-28T23:38:26.709Z,20.20
2018-06-28T23:40:56.231Z,20.10
2018-06-28T23:43:24.941Z,20.00
2018-06-28T23:45:53.760Z,20.10
2018-06-28T23:48:22.843Z,20.00
2018-06-28T23:50:51.601Z,20.00
2018-06-28T23:53:20.992Z,20.00
2018-06-28T23:55:50.190Z,19.90
2018-06-28T23:58:19.319Z,19.90
